Tiempo atmosférico en la estación meteorológica de Vega de San Mateo, Las Palmas (1702 m.)



Fecha
DESCASC
Temp. máxima en grados centígrados (hora)
DESCASC
Temp. mínima en grados centígrados (hora)
DESCASC
Temp. media en grados centígrados
DESCASC
Racha de viento máxima en m/sg (hora)
DESCASC
Velocidad máxima media en intervalos de 10 minutos(hora)
DESCASC
Precipitaciones diarias en mm
DESCASC
Precipitaciones de 00:00 a 06:00 en mm
DESCASC
Precipitaciones de 06:00 a 12:00 en mm
DESCASC
Precipitaciones de 12:00 a 18:00 en mm
DESCASC
Precipitaciones de 18:00 a 24:00 en mm
DESCASC
24-09-2020 21.6 (16:00) 12.6 (07:20) 17.1 15 (00:40) 7.22 (00:10) 4.8 2.4 2.4 0 0
23-09-2020 24.6 (12:00) 15.4 (00:00) 20 15 (18:50) 8.61 (18:40) 0 0 0 0 0
22-09-2020 28 (14:10) 18.7 (00:00) 23.4 7.22 (15:50) 4.17 (15:50) 0 0 0 0 0
21-09-2020 28.3 (12:10) 18.8 (00:00) 23.5 7.22 (10:30) 3.61 (14:00) 0 0 0 0 0
20-09-2020 29.4 (14:00) 17.5 (00:00) 23.4 5.83 (12:50) 3.33 (12:40) 0 0 0 0 0
19-09-2020 -- (--) -- (--) -- -- (--) -- (--) -- 0 -- 0 0
18-09-2020 26.4 (12:10) 18.3 (00:00) 22.3 10 (02:50) 5.56 (19:10) 0 0 0 0 0
17-09-2020 26.8 (13:40) 17.8 (00:00) 22.3 10.28 (08:50) 5.83 (16:00) 0 0 0 0 0
16-09-2020 27.3 (14:10) 16.1 (00:00) 21.7 12.22 (05:50) 6.67 (07:10) 0 0 0 0 0
15-09-2020 24.3 (16:00) 16.5 (00:00) 20.4 11.11 (22:50) 4.72 (22:50) 0 0 0 0 0
14-09-2020 25.7 (16:10) 16.7 (00:00) 21.2 9.17 (11:30) 6.11 (11:50) 0 0 0 0 0
13-09-2020 21 (16:30) 14.3 (00:00) 17.7 13.33 (01:30) 8.33 (01:30) 0 0 0 0 0
12-09-2020 22.5 (12:10) 15 (00:00) 18.8 12.22 (20:50) 7.22 (20:50) 0 0 0 0 0
11-09-2020 24.9 (15:30) 16.7 (00:00) 20.8 7.78 (18:10) 3.61 (18:10) 0 0 0 0 0
10-09-2020 26.7 (15:30) 19 (00:00) 22.9 10.56 (02:30) 5 (01:20) 0 0 0 0 0
09-09-2020 25.9 (13:50) 18.8 (00:00) 22.3 11.39 (23:20) 5.83 (01:20) 0 0 0 0 0
08-09-2020 26.5 (16:10) 19.8 (00:00) 23.1 12.22 (15:40) 6.39 (12:30) 0 0 0 0 0
07-09-2020 27.8 (12:40) 17.6 (07:10) 22.7 8.33 (23:59) 4.72 (21:00) 0 0 0 0 0
06-09-2020 27.1 (14:30) 19.7 (00:00) 23.4 8.89 (11:50) 5 (13:20) 0 0 0 0 0
05-09-2020 27.4 (13:30) 17.9 (00:00) 22.6 9.72 (17:10) 5.56 (17:10) 0 0 0 0 0
04-09-2020 26.6 (17:00) 16.7 (00:00) 21.7 12.5 (17:40) 6.39 (15:30) 0 0 0 0 0
03-09-2020 26.7 (15:10) 15.9 (00:00) 21.3 8.89 (15:30) 5.28 (15:30) 0 0 0 0 0
02-09-2020 26.2 (13:30) 16.1 (00:00) 21.2 8.06 (14:50) 5.28 (15:10) 0 0 0 0 0
01-09-2020 24.9 (14:10) 14.5 (00:00) 19.7 9.17 (14:50) 4.72 (14:30) 0 0 0 0 0
31-08-2020 21.4 (16:40) 8.2 (00:00) 14.8 9.17 (03:30) 5.83 (02:00) 0 0 0 0 0
30-08-2020 11 (17:30) 7.4 (00:00) 9.2 11.67 (03:40) 6.67 (02:00) 4.4 2.4 2 0 0
29-08-2020 20.1 (00:50) 9 (00:00) 14.6 11.94 (16:20) 6.39 (17:10) 0.8 0 0 0 0.8
28-08-2020 28.7 (16:50) 19.4 (00:00) 24.1 12.5 (07:10) 5.83 (09:10) 0 0 0 0 0

Gráficas

Temp. máximas Temp. mínimas Temp. medias Precipitaciones Rachas de viento máximas Velocidades máximas media en intervalos de 10 minutos

Datos horarios

Fecha y hora oficial Temperatura (ºC) Velocidad del viento (km/h) Dirección del viento Racha (km/h) Dirección de racha Precipitación (mm) Presión (hPa) Tendencia (hPa) Humedad (%)
2020-09-26 23:00:00 -- -- -- -- -- -- -- -- --
2020-09-26 22:00:00 -- -- -- -- -- -- -- -- --
2020-09-26 21:00:00 18 6 Este 15 Oeste 0 -- -- 39
2020-09-26 20:00:00 19.7 6 Sudeste 15 Nordeste 0 -- -- 39
2020-09-26 19:00:00 21.4 7 Este 21 Este 0 -- -- 38
2020-09-26 18:00:00 22.6 9 Este 25 Nordeste 0 -- -- 36
2020-09-26 17:00:00 23.8 6 Este 24 Este 0 -- -- 37
2020-09-26 16:00:00 23.2 12 Este 26 Este 0 -- -- 37
2020-09-26 15:00:00 23.9 12 Este 33 Nordeste 0 -- -- 34
2020-09-26 14:00:00 24.3 12 Este 32 Este 0 -- -- 35
2020-09-26 13:00:00 23.6 14 Este 33 Nordeste 0 -- -- 36
2020-09-26 12:00:00 23 15 Este 32 Nordeste 0 -- -- 37
2020-09-26 11:00:00 22.3 13 Este 27 Este 0 -- -- 41
2020-09-26 10:00:00 20.4 14 Este 24 Nordeste 0 -- -- 45
2020-09-26 09:00:00 18.7 12 Este 21 Este 0 -- -- 49
2020-09-26 08:00:00 17 12 Este 22 Este 0 -- -- 52
2020-09-26 07:00:00 16.9 10 Este 19 Este 0 -- -- 52
2020-09-26 06:00:00 17.2 10 Este 18 Nordeste 0 -- -- 49
2020-09-26 05:00:00 17.2 11 Este 22 Este 0 -- -- 48
2020-09-26 04:00:00 17.3 10 Este 22 Este 0 -- -- 48
2020-09-26 03:00:00 17.6 12 Este 21 Nordeste 0 -- -- 46
2020-09-26 02:00:00 17.9 10 Este 18 Nordeste 0 -- -- 47
2020-09-26 01:00:00 18 9 Este 16 Este 0 -- -- 47
2020-09-26 00:00:00 18.2 10 Nordeste 15 Nordeste 0 -- -- 46
2020-09-25 23:00:00 17.8 7 Este 15 Nordeste 0 -- -- 47
2020-09-25 22:00:00 18.6 9 Este 18 Este 0 -- -- 47
2020-09-25 21:00:00 19.3 7 Este 15 Este 0 -- -- 50
2020-09-25 20:00:00 19.3 4 Este 11 Nordeste 0 -- -- 51
2020-09-25 19:00:00 22 8 Nordeste 13 Nordeste 0 -- -- 45
2020-09-25 18:00:00 23.6 6 Nordeste 17 Nordeste 0 -- -- 44
2020-09-25 17:00:00 25.2 5 Nordeste 15 Este 0 -- -- 39
2020-09-25 16:00:00 24.3 9 Nordeste 18 Este 0 -- -- 38
2020-09-25 15:00:00 24.5 8 Nordeste 17 Este 0 -- -- 38
2020-09-25 14:00:00 25.3 6 Nordeste 18 Este 0 -- -- 36
2020-09-25 13:00:00 24.1 8 Nordeste 17 Este 0 -- -- 37
2020-09-25 12:00:00 24.1 6 Nordeste 16 Nordeste 0 -- -- 39
2020-09-25 11:00:00 22.5 6 Este 17 Nordeste 0 -- -- 42
2020-09-25 10:00:00 23.2 5 Oeste 12 Oeste 0 -- -- 41
2020-09-25 09:00:00 20.4 2 Sur 13 Sudeste 0 -- -- 47
2020-09-25 08:00:00 17.9 4 Sur 13 Sudeste 0 -- -- 52
2020-09-25 07:00:00 17.7 4 Sudeste 17 Sudeste 0 -- -- 51
2020-09-25 06:00:00 18.3 9 Sudeste 21 Sur 0 -- -- 49
2020-09-25 05:00:00 18.2 8 Sur 32 Sudeste 0 -- -- 50
2020-09-25 04:00:00 19.1 16 Sudeste 31 Sudeste 0 -- -- 47
2020-09-25 03:00:00 18.4 14 Sudeste 25 Este 0 -- -- 47
2020-09-25 02:00:00 18 11 Sudeste 23 Sudeste 0 -- -- 47
2020-09-25 01:00:00 18.5 10 Sur 24 Sudeste 0 -- -- 46
2020-09-25 00:00:00 17.7 9 Sur 27 Sur 0 -- -- 47
2020-09-24 23:00:00 17.5 12 Sudeste 26 Sur 0 -- -- 45
2020-09-24 22:00:00 17.8 13 Sudeste 27 Sudeste 0 -- -- 45
2020-09-24 21:00:00 17.9 9 Sur 22 Sur 0 -- -- 44
2020-09-24 20:00:00 18.4 9 Sur 21 Sur 0 -- -- 42
2020-09-24 19:00:00 18.8 10 Oeste 28 Sudoeste 0 -- -- 49
2020-09-24 18:00:00 21 12 Sudoeste 36 Sudoeste 0 -- -- 43
2020-09-24 17:00:00 20.9 16 Sudoeste 36 Oeste 0 -- -- 43
2020-09-24 16:00:00 21.6 17 Oeste 34 Sudoeste 0 -- -- 43
2020-09-24 15:00:00 19.7 17 Oeste 38 Oeste 0 -- -- 47
2020-09-24 14:00:00 19.6 19 Sudoeste 39 Sudoeste 0 -- -- 50
2020-09-24 13:00:00 18.5 16 Oeste 37 Oeste 0 -- -- 52
2020-09-24 12:00:00 17.5 13 Sudoeste 31 Sudoeste 0 -- -- 57
2020-09-24 11:00:00 16.8 14 Sudoeste 32 Sudoeste 0 -- -- 60
2020-09-24 10:00:00 16 13 Sudoeste 32 Sudoeste 0 -- -- 62
2020-09-24 09:00:00 14.2 15 Sudoeste 34 Sudoeste 0 -- -- 70
2020-09-24 08:00:00 13 15 Sudoeste 36 Sudoeste 1.2 -- -- 80
2020-09-24 07:00:00 13.1 12 Sudoeste 30 Sudoeste 1.2 -- -- 82
2020-09-24 06:00:00 15.4 14 Sudoeste 29 Oeste 0 -- -- 64
2020-09-24 05:00:00 16.3 13 Sudoeste 28 Sudoeste 0 -- -- 56
2020-09-24 04:00:00 15.1 7 Sudoeste 28 Sudoeste 0 -- -- 63
2020-09-24 03:00:00 15.4 12 Sudoeste 32 Sur 0.6 -- -- 61
2020-09-24 02:00:00 15 14 Sudoeste 42 Sudoeste 0.6 -- -- 66
2020-09-24 01:00:00 12.8 22 Sudoeste 54 Sudoeste 1.2 -- -- 80
2020-09-24 00:00:00 15.4 26 Sudoeste 47 Sudoeste 0 -- -- 61
2020-09-23 23:00:00 16 22 Oeste 41 Sudoeste 0 -- -- 57
2020-09-23 22:00:00 16.9 18 Oeste 40 Sudoeste 0 -- -- 51
2020-09-23 21:00:00 16.2 24 Oeste 42 Oeste 0 -- -- 56
2020-09-23 20:00:00 16.9 21 Oeste 40 Sur 0 -- -- 52
2020-09-23 19:00:00 16.8 23 Oeste 54 Oeste 0 -- -- 49
2020-09-23 18:00:00 18.6 21 Oeste 32 Oeste 0 -- -- 34
2020-09-23 17:00:00 18.5 14 Oeste 26 Oeste 0 -- -- 39
2020-09-23 16:00:00 19.5 17 Oeste 24 Oeste 0 -- -- 39
2020-09-23 15:00:00 22 12 Oeste 22 Oeste 0 -- -- 40
2020-09-23 14:00:00 22.9 11 Noroeste 20 Oeste 0 -- -- 41
2020-09-23 13:00:00 23.5 9 Noroeste 17 Oeste 0 -- -- 34
2020-09-23 12:00:00 24.6 7 Oeste 16 Oeste 0 -- -- 31
2020-09-23 11:00:00 22.2 9 Noroeste 14 Oeste 0 -- -- 31
2020-09-23 10:00:00 20.8 4 Sur 8 Sudeste 0 -- -- 34
2020-09-23 09:00:00 18.4 3 Sudoeste 9 Sudoeste 0 -- -- 39
2020-09-23 08:00:00 15.9 0 Calma 4 Este 0 -- -- 44
2020-09-23 07:00:00 17 3 Este 8 Nordeste 0 -- -- 37
2020-09-23 06:00:00 17.9 3 Este 8 Nordeste 0 -- -- 35
2020-09-23 05:00:00 18.4 3 Este 6 Este 0 -- -- 34
2020-09-23 04:00:00 18.9 4 Este 8 Nordeste 0 -- -- 32
2020-09-23 03:00:00 18.6 3 Nordeste 6 Nordeste 0 -- -- 34
2020-09-23 02:00:00 18.9 0 Calma 8 Nordeste 0 -- -- 35
2020-09-23 01:00:00 19.2 3 Nordeste 12 Nordeste 0 -- -- 34
2020-09-23 00:00:00 19.4 3 Este 6 Este 0 -- -- 36
2020-09-22 23:00:00 19.7 3 Este 6 Nordeste 0 -- -- 40
2020-09-22 22:00:00 18.9 0 Calma 8 Nordeste 0 -- -- 37
2020-09-22 21:00:00 19.3 0 Calma 6 Sudeste 0 -- -- 51
2020-09-22 20:00:00 20.7 2 Nordeste 8 Oeste 0 -- -- 49
2020-09-22 19:00:00 22.1 2 Nordeste 13 Nordeste 0 -- -- 44
2020-09-22 18:00:00 24.2 5 Sur 19 Oeste 0 -- -- 44
2020-09-22 17:00:00 25.2 12 Oeste 22 Noroeste 0 -- -- 40
2020-09-22 16:00:00 25.4 14 Oeste 26 Oeste 0 -- -- 34
2020-09-22 15:00:00 27.1 10 Oeste 22 Oeste 0 -- -- 29
2020-09-22 14:00:00 26.9 5 Norte 17 Sudoeste 0 -- -- 29
2020-09-22 13:00:00 26.2 8 Nordeste 25 Nordeste 0 -- -- 27
2020-09-22 12:00:00 25.9 9 Este 19 Este 0 -- -- 26
2020-09-22 11:00:00 24.3 9 Este 18 Nordeste 0 -- -- 26
2020-09-22 10:00:00 22.7 8 Este 16 Este 0 -- -- 28
2020-09-22 09:00:00 20.8 7 Este 14 Este 0 -- -- 30
2020-09-22 08:00:00 19.7 7 Este 17 Este 0 -- -- 32
2020-09-22 07:00:00 19.3 8 Este 19 Nordeste 0 -- -- 34
2020-09-22 06:00:00 19.9 10 Este 19 Este 0 -- -- 33
2020-09-22 05:00:00 19 7 Este 18 Sudeste 0 -- -- 34
2020-09-22 04:00:00 20.2 8 Este 20 Este 0 -- -- 30
2020-09-22 03:00:00 21.1 7 Este 17 Este 0 -- -- 29
2020-09-22 02:00:00 21.4 8 Este 14 Este 0 -- -- 28
2020-09-22 01:00:00 21.5 8 Este 13 Este 0 -- -- 28
2020-09-22 00:00:00 21 4 Sudeste 13 Nordeste 0 -- -- 29
2020-09-21 23:00:00 21.2 5 Este 11 Este 0 -- -- 29
2020-09-21 22:00:00 21.3 5 Sudeste 9 Sudeste 0 -- -- 28
2020-09-21 21:00:00 20.2 3 Sudeste 9 Este 0 -- -- 30
2020-09-21 20:00:00 22.3 5 Este 15 Este 0 -- -- 27
2020-09-21 19:00:00 25.6 3 Este 11 Norte 0 -- -- 24
2020-09-21 18:00:00 26 8 Este 21 Norte 0 -- -- 24
2020-09-21 17:00:00 27 7 Noroeste 24 Este 0 -- -- 24
2020-09-21 16:00:00 26.4 12 Este 21 Noroeste 0 -- -- 29
2020-09-21 15:00:00 27.8 7 Oeste 25 Noroeste 0 -- -- 24
2020-09-21 14:00:00 27.2 13 Noroeste 25 Noroeste 0 -- -- 26
2020-09-21 13:00:00 27.4 10 Noroeste 22 Noroeste 0 -- -- 24
2020-09-21 12:00:00 27.4 9 Noroeste 22 Este 0 -- -- 22
2020-09-21 11:00:00 26.6 5 Noroeste 26 Este 0 -- -- 23
2020-09-21 10:00:00 24.5 9 Este 22 Este 0 -- -- 25
2020-09-21 09:00:00 22.2 7 Este 15 Este 0 -- -- 28
2020-09-21 08:00:00 20.3 4 Este 15 Nordeste 0 -- -- 30
2020-09-21 07:00:00 20.2 4 Este 15 Este 0 -- -- 33
2020-09-21 06:00:00 20.6 7 Este 13 Este 0 -- -- 32
2020-09-21 05:00:00 19.1 3 Sudeste 8 Este 0 -- -- 34
2020-09-21 04:00:00 19.4 3 Sudeste 10 Sudoeste 0 -- -- 34
2020-09-21 03:00:00 20.2 4 Sudoeste 17 Norte 0 -- -- 33
2020-09-21 02:00:00 20.5 3 Norte 15 Noroeste 0 -- -- 32
2020-09-21 01:00:00 19.7 2 Nordeste 9 Noroeste 0 -- -- 33
2020-09-21 00:00:00 19.7 2 Nordeste 12 Este 0 -- -- 34
2020-09-20 23:00:00 20.2 4 Este 11 Sudeste 0 -- -- 33
2020-09-20 22:00:00 20.9 3 Este 9 Este 0 -- -- 31
2020-09-20 21:00:00 20.4 2 Sudeste 9 Este 0 -- -- 32
2020-09-20 20:00:00 22.6 3 Este 11 Oeste 0 -- -- 30
2020-09-20 19:00:00 25.9 5 Oeste 15 Oeste 0 -- -- 29
2020-09-20 18:00:00 26.9 8 Oeste 17 Oeste 0 -- -- 25
2020-09-20 17:00:00 27.1 10 Oeste 21 Oeste 0 -- -- 26
2020-09-20 16:00:00 27.3 10 Oeste 21 Oeste 0 -- -- 26
2020-09-20 15:00:00 28.1 9 Oeste 19 Oeste 0 -- -- 23
2020-09-20 14:00:00 29.4 10 Oeste 20 Oeste 0 -- -- 18
2020-09-20 13:00:00 28.6 12 Oeste 21 Oeste 0 -- -- 16
2020-09-20 12:00:00 27.7 9 Oeste 15 Oeste 0 -- -- 16
2020-09-20 11:00:00 26.9 8 Oeste 13 Oeste 0 -- -- 15
2020-09-20 10:00:00 26.9 5 Oeste 14 Noroeste 0 -- -- 19
2020-09-20 09:00:00 23.5 3 Norte 8 Noroeste 0 -- -- 19
2020-09-20 08:00:00 20.4 3 Sudeste 11 Oeste 0 -- -- 21
2020-09-20 07:00:00 20.8 3 Sudoeste 8 Norte 0 -- -- 12
2020-09-20 06:00:00 19.3 3 Sudeste 6 Sur 0 -- -- 14
2020-09-20 05:00:00 18.8 3 Este 9 Este 0 -- -- 19
2020-09-20 04:00:00 18.5 0 Calma 4 Este 0 -- -- 22
2020-09-20 03:00:00 17.6 3 Este 5 Norte 0 -- -- 25
2020-09-20 02:00:00 19 2 Nordeste 9 Nordeste 0 -- -- 25
2020-09-20 01:00:00 19.5 5 Este 12 Nordeste 0 -- -- 24
2020-09-20 00:00:00 19.9 7 Nordeste 10 Nordeste 0 -- -- 24
2020-09-19 23:00:00 18.3 0 Calma 6 Nordeste 0 -- -- 20
2020-09-19 22:00:00 19.1 3 Nordeste 5 Nordeste 0 -- -- 20
2020-09-19 21:00:00 18.9 2 Este 7 Este 0 -- -- 22
2020-09-19 20:00:00 22.6 0 Calma 9 Oeste 0 -- -- 21
2020-09-19 19:00:00 24.7 6 Oeste 16 Oeste 0 -- -- 36
2020-09-19 18:00:00 24.2 11 Oeste 18 Oeste 0 -- -- 38
2020-09-19 17:00:00 24.9 12 Oeste 18 Oeste 0 -- -- 36
2020-09-19 16:00:00 25.1 9 Oeste 23 Oeste 0 -- -- 37
2020-09-19 15:00:00 25.5 10 Oeste 19 Noroeste 0 -- -- 33
2020-09-19 14:00:00 25.4 8 Oeste 17 Oeste 0 -- -- 27
2020-09-19 13:00:00 26.5 7 Oeste 17 Oeste 0 -- -- 19
2020-09-19 12:00:00 25.9 7 Oeste 13 Noroeste 0 -- -- 17
2020-09-19 11:00:00 25.8 6 Oeste 12 Oeste 0 -- -- 15
2020-09-19 10:00:00 -- -- -- -- -- -- -- -- --
2020-09-19 09:00:00 21.9 2 Sudoeste 5 Sur 0 -- -- 21
2020-09-19 08:00:00 17.3 3 Sur 6 Sudoeste 0 -- -- 25
2020-09-19 07:00:00 17.3 0 Calma 5 Sudeste 0 -- -- 24
2020-09-19 06:00:00 16.2 2 Sudeste 5 Sudeste 0 -- -- 29
2020-09-19 05:00:00 16.5 2 Nordeste 5 Nordeste 0 -- -- 27
2020-09-19 04:00:00 16.7 0 Calma 6 Sur 0 -- -- 23
2020-09-19 03:00:00 18.1 0 Calma 11 Sudoeste 0 -- -- 24
2020-09-19 02:00:00 20 7 Sudoeste 14 Sudoeste 0 -- -- 21
2020-09-19 01:00:00 18.5 5 Sudoeste 10 Sur 0 -- -- 19
2020-09-19 00:00:00 18.3 3 Sudoeste 16 Sudoeste 0 -- -- 26
2020-09-18 23:00:00 19.4 6 Sudoeste 11 Sudoeste 0 -- -- 24
2020-09-18 22:00:00 19 4 Sudoeste 16 Sudoeste 0 -- -- 19
2020-09-18 21:00:00 20.4 11 Sudoeste 26 Oeste 0 -- -- 24
2020-09-18 20:00:00 21.3 14 Oeste 33 Oeste 0 -- -- 25
2020-09-18 19:00:00 23.5 18 Oeste 33 Oeste 0 -- -- 40
2020-09-18 18:00:00 23.3 15 Oeste 28 Oeste 0 -- -- 44
2020-09-18 17:00:00 23.7 14 Oeste 28 Sudoeste 0 -- -- 51
2020-09-18 16:00:00 24.7 13 Oeste 30 Oeste 0 -- -- 47
2020-09-18 15:00:00 25.2 15 Oeste 28 Oeste 0 -- -- 39
2020-09-18 14:00:00 26 12 Oeste 24 Sudoeste 0 -- -- 39
2020-09-18 13:00:00 25.9 12 Oeste 23 Oeste 0 -- -- 35
2020-09-18 12:00:00 26 12 Oeste 26 Oeste 0 -- -- 28
2020-09-18 11:00:00 25.3 9 Oeste 17 Oeste 0 -- -- 27
2020-09-18 10:00:00 23.8 10 Oeste 14 Oeste 0 -- -- 28
2020-09-18 09:00:00 21.7 6 Sudoeste 15 Sudoeste 0 -- -- 32
2020-09-18 08:00:00 19.2 10 Sudoeste 30 Oeste 0 -- -- 37
2020-09-18 07:00:00 20.1 13 Oeste 31 Oeste 0 -- -- 37
2020-09-18 06:00:00 20.7 16 Oeste 32 Sudoeste 0 -- -- 37
2020-09-18 05:00:00 21 17 Oeste 35 Oeste 0 -- -- 35
2020-09-18 04:00:00 21 18 Oeste 33 Oeste 0 -- -- 35
2020-09-18 03:00:00 21.3 17 Oeste 36 Oeste 0 -- -- 34
2020-09-18 02:00:00 21.3 16 Sudoeste 32 Oeste 0 -- -- 33
2020-09-18 01:00:00 21.4 15 Oeste 27 Oeste 0 -- -- 33
2020-09-18 00:00:00 20.5 8 Sudoeste 20 Oeste 0 -- -- 34
2020-09-17 23:00:00 21.1 8 Sudoeste 26 Oeste 0 -- -- 32
2020-09-17 22:00:00 21.6 12 Oeste 26 Sudoeste 0 -- -- 31
2020-09-17 21:00:00 21.6 12 Oeste 22 Oeste 0 -- -- 32
2020-09-17 20:00:00 21.8 13 Oeste 27 Oeste 0 -- -- 32
2020-09-17 19:00:00 21.6 17 Oeste 30 Oeste 0 -- -- 38
2020-09-17 18:00:00 22.5 17 Oeste 36 Oeste 0 -- -- 35
2020-09-17 17:00:00 23.2 21 Oeste 32 Oeste 0 -- -- 34
2020-09-17 16:00:00 24.1 21 Oeste 34 Oeste 0 -- -- 36
2020-09-17 15:00:00 23.5 20 Oeste 30 Oeste 0 -- -- 40
2020-09-17 14:00:00 24.8 18 Oeste 31 Oeste 0 -- -- 36
2020-09-17 13:00:00 26 16 Oeste 25 Noroeste 0 -- -- 33
2020-09-17 12:00:00 24.7 11 Oeste 24 Oeste 0 -- -- 33
2020-09-17 11:00:00 23.7 12 Oeste 24 Sudoeste 0 -- -- 34
2020-09-17 10:00:00 22.8 13 Oeste 31 Oeste 0 -- -- 32
2020-09-17 09:00:00 21.2 16 Oeste 37 Oeste 0 -- -- 36
2020-09-17 08:00:00 18.1 7 Sudoeste 11 Sudoeste 0 -- -- 46
2020-09-17 07:00:00 18 10 Oeste 17 Sudoeste 0 -- -- 48
2020-09-17 06:00:00 18.3 8 Sudoeste 17 Noroeste 0 -- -- 47
2020-09-17 05:00:00 19.7 6 Sudoeste 14 Sudoeste 0 -- -- 40
2020-09-17 04:00:00 18.2 6 Sudoeste 14 Oeste 0 -- -- 48
2020-09-17 03:00:00 18.5 5 Sudoeste 10 Oeste 0 -- -- 46
2020-09-17 02:00:00 18.6 5 Sudoeste 17 Oeste 0 -- -- 46
2020-09-17 01:00:00 19.8 4 Noroeste 18 Oeste 0 -- -- 40
2020-09-17 00:00:00 18.9 2 Nordeste 11 Nordeste 0 -- -- 45
2020-09-16 23:00:00 19.3 5 Nordeste 15 Nordeste 0 -- -- 45
2020-09-16 22:00:00 19.3 5 Este 19 Este 0 -- -- 46
2020-09-16 21:00:00 18.8 4 Sudeste 13 Este 0 -- -- 48
2020-09-16 20:00:00 18 6 Nordeste 17 Nordeste 0 -- -- 53
2020-09-16 19:00:00 18.7 7 Este 15 Este 0 -- -- 52
2020-09-16 18:00:00 19.4 9 Nordeste 18 Nordeste 0 -- -- 50
2020-09-16 17:00:00 22.4 9 Nordeste 22 Nordeste 0 -- -- 41
2020-09-16 16:00:00 24.5 8 Nordeste 16 Este 0 -- -- 36
2020-09-16 15:00:00 24.7 5 Nordeste 16 Este 0 -- -- 36
2020-09-16 14:00:00 26.5 6 Norte 21 Nordeste 0 -- -- 35
2020-09-16 13:00:00 24.3 8 Nordeste 19 Nordeste 0 -- -- 38
2020-09-16 12:00:00 18 9 Este 32 Este 0 -- -- 60
2020-09-16 11:00:00 17.4 17 Este 34 Nordeste 0 -- -- 56
2020-09-16 10:00:00 16.9 19 Este 39 Este 0 -- -- 53
2020-09-16 09:00:00 16.2 23 Este 44 Este 0 -- -- 52
2020-09-16 08:00:00 16.1 21 Este 41 Este 0 -- -- 50
2020-09-16 07:00:00 16.4 20 Este 39 Este 0 -- -- 50
2020-09-16 06:00:00 16.7 23 Este 44 Este 0 -- -- 47
2020-09-16 05:00:00 16.9 23 Este 43 Este 0 -- -- 46
2020-09-16 04:00:00 17.1 21 Este 39 Este 0 -- -- 43
2020-09-16 03:00:00 17.4 20 Este 39 Este 0 -- -- 43
2020-09-16 02:00:00 17.5 19 Este 44 Este 0 -- -- 41
2020-09-16 01:00:00 17.4 18 Este 40 Sudeste 0 -- -- 36
2020-09-16 00:00:00 17.3 15 Este 38 Este 0 -- -- 36
2020-09-15 23:00:00 17 13 Este 40 Este 0 -- -- 36
2020-09-15 22:00:00 16.6 10 Este 29 Este 0 -- -- 38
2020-09-15 21:00:00 17.4 13 Este 27 Este 0 -- -- 40
2020-09-15 20:00:00 18.8 9 Este 28 Este 0 -- -- 42
2020-09-15 19:00:00 19.4 10 Este 22 Nordeste 0 -- -- 37
2020-09-15 18:00:00 20.8 6 Este 23 Sudeste 0 -- -- 34
2020-09-15 17:00:00 21.5 13 Este 27 Este 0 -- -- 34
2020-09-15 16:00:00 24.3 4 Sudoeste 18 Noroeste 0 -- -- 30
2020-09-15 15:00:00 22.7 8 Este 22 Nordeste 0 -- -- 30
2020-09-15 14:00:00 23 10 Este 22 Nordeste 0 -- -- 29
2020-09-15 13:00:00 23.2 3 Este 19 Este 0 -- -- 28
2020-09-15 12:00:00 22.3 7 Este 21 Nordeste 0 -- -- 24
2020-09-15 11:00:00 21.5 10 Nordeste 21 Este 0 -- -- 20
2020-09-15 10:00:00 21.6 8 Este 21 Este 0 -- -- 34
2020-09-15 09:00:00 20.9 6 Este 12 Este 0 -- -- 27
2020-09-15 08:00:00 19.2 0 Calma 6 Este 0 -- -- 36
2020-09-15 07:00:00 19.3 3 Este 9 Este 0 -- -- 35
2020-09-15 06:00:00 19.4 2 Oeste 8 Oeste 0 -- -- 36
2020-09-15 05:00:00 20.4 3 Norte 12 Sudoeste 0 -- -- 33
2020-09-15 04:00:00 21.1 3 Este 10 Oeste 0 -- -- 32
2020-09-15 03:00:00 21 3 Norte 12 Oeste 0 -- -- 33
2020-09-15 02:00:00 20.7 3 Sudeste 22 Oeste 0 -- -- 32
2020-09-15 01:00:00 21.5 7 Oeste 27 Oeste 0 -- -- 26
2020-09-15 00:00:00 21.8 9 Sudoeste 18 Oeste 0 -- -- 24
2020-09-14 23:00:00 22 4 Sur 14 Oeste 0 -- -- 30
2020-09-14 22:00:00 22 6 Sudoeste 19 Oeste 0 -- -- 31
2020-09-14 21:00:00 22.2 9 Oeste 24 Oeste 0 -- -- 29
2020-09-14 20:00:00 21.5 7 Sudoeste 17 Sudoeste 0 -- -- 35
2020-09-14 19:00:00 22 8 Oeste 24 Oeste 0 -- -- 46
2020-09-14 18:00:00 24.9 11 Oeste 26 Oeste 0 -- -- 41
2020-09-14 17:00:00 25.7 15 Oeste 26 Oeste 0 -- -- 34
2020-09-14 16:00:00 25.2 15 Oeste 29 Oeste 0 -- -- 29
2020-09-14 15:00:00 25.3 19 Oeste 30 Oeste 0 -- -- 23
2020-09-14 14:00:00 24.9 20 Oeste 30 Oeste 0 -- -- 22
2020-09-14 13:00:00 24.3 18 Oeste 30 Oeste 0 -- -- 24
2020-09-14 12:00:00 23.3 20 Oeste 33 Oeste 0 -- -- 26
2020-09-14 11:00:00 22.5 20 Oeste 31 Oeste 0 -- -- 26
2020-09-14 10:00:00 21.4 19 Oeste 30 Noroeste 0 -- -- 29
2020-09-14 09:00:00 19.9 18 Oeste 31 Noroeste 0 -- -- 33
2020-09-14 08:00:00 18.2 15 Oeste 30 Oeste 0 -- -- 33
2020-09-14 07:00:00 18.3 17 Oeste 30 Oeste 0 -- -- 31
2020-09-14 06:00:00 18 12 Sudoeste 27 Sudoeste 0 -- -- 30
2020-09-14 05:00:00 18.2 15 Sudoeste 30 Sudoeste 0 -- -- 30
2020-09-14 04:00:00 18 15 Sudoeste 30 Oeste 0 -- -- 31
2020-09-14 03:00:00 18.2 15 Sudoeste 26 Sudoeste 0 -- -- 31
2020-09-14 02:00:00 18.1 14 Sudoeste 26 Sudoeste 0 -- -- 30
2020-09-14 01:00:00 17.8 14 Sudoeste 29 Sudoeste 0 -- -- 31
2020-09-14 00:00:00 17.3 13 Sudoeste 24 Sudoeste 0 -- -- 36
2020-09-13 23:00:00 16.9 11 Sudoeste 21 Sudoeste 0 -- -- 36
2020-09-13 22:00:00 17.3 10 Sudoeste 22 Sudoeste 0 -- -- 37
2020-09-13 21:00:00 17.6 13 Sudoeste 24 Sudoeste 0 -- -- 38
2020-09-13 20:00:00 18 14 Sudoeste 26 Sudoeste 0 -- -- 40
2020-09-13 19:00:00 18.1 13 Sudoeste 29 Oeste 0 -- -- 43
2020-09-13 18:00:00 20.7 14 Oeste 29 Oeste 0 -- -- 42
2020-09-13 17:00:00 19.6 13 Sudoeste 28 Oeste 0 -- -- 50
2020-09-13 16:00:00 19.3 12 Oeste 29 Oeste 0 -- -- 53
2020-09-13 15:00:00 19.7 16 Oeste 26 Oeste 0 -- -- 56
2020-09-13 14:00:00 20.3 13 Oeste 32 Sudoeste 0 -- -- 48
2020-09-13 13:00:00 18.9 15 Sudoeste 27 Sudoeste 0 -- -- 46
2020-09-13 12:00:00 18.5 14 Oeste 26 Sudoeste 0 -- -- 50
2020-09-13 11:00:00 18.7 13 Oeste 24 Sudoeste 0 -- -- 45
2020-09-13 10:00:00 16.9 13 Sudoeste 30 Sur 0 -- -- 52
2020-09-13 09:00:00 16.2 12 Sudoeste 29 Oeste 0 -- -- 53
2020-09-13 08:00:00 15.2 15 Sudoeste 32 Noroeste 0 -- -- 57
2020-09-13 07:00:00 15.7 18 Sudoeste 37 Sudoeste 0 -- -- 55
2020-09-13 06:00:00 15.9 19 Sudoeste 35 Sudoeste 0 -- -- 52
2020-09-13 05:00:00 14.8 17 Oeste 37 Oeste 0 -- -- 56
2020-09-13 04:00:00 14.5 19 Sudoeste 39 Oeste 0 -- -- 64
2020-09-13 03:00:00 15.7 22 Oeste 42 Noroeste 0 -- -- 57
2020-09-13 02:00:00 16 26 Oeste 48 Oeste 0 -- -- 54
2020-09-13 01:00:00 17 24 Oeste 37 Oeste 0 -- -- 50
2020-09-13 00:00:00 16.9 18 Oeste 31 Oeste 0 -- -- 49
2020-09-12 23:00:00 17.4 16 Oeste 30 Oeste 0 -- -- 45
2020-09-12 22:00:00 15.8 5 Oeste 42 Oeste 0 -- -- 59
2020-09-12 21:00:00 17.5 22 Oeste 44 Oeste 0 -- -- 48
2020-09-12 20:00:00 17.7 19 Oeste 35 Noroeste 0 -- -- 51
2020-09-12 19:00:00 18.4 17 Oeste 37 Oeste 0 -- -- 56
2020-09-12 18:00:00 20.2 21 Oeste 43 Oeste 0 -- -- 48
2020-09-12 17:00:00 21.3 24 Oeste 43 Oeste 0 -- -- 39
2020-09-12 16:00:00 21.6 16 Oeste 28 Oeste 0 -- -- 42
2020-09-12 15:00:00 21.6 11 Oeste 25 Oeste 0 -- -- 42
2020-09-12 14:00:00 21.7 12 Oeste 23 Oeste 0 -- -- 36
2020-09-12 13:00:00 21.6 13 Oeste 24 Oeste 0 -- -- 36
2020-09-12 12:00:00 22.1 10 Oeste 19 Oeste 0 -- -- 32
2020-09-12 11:00:00 21.3 10 Oeste 21 Oeste 0 -- -- 33
2020-09-12 10:00:00 20.4 11 Oeste 23 Oeste 0 -- -- 34
2020-09-12 09:00:00 18.7 7 Oeste 15 Sudoeste 0 -- -- 38
2020-09-12 08:00:00 15.5 3 Sur 9 Sudoeste 0 -- -- 46
2020-09-12 07:00:00 15.7 5 Sudoeste 12 Sur 0 -- -- 45
2020-09-12 06:00:00 15.5 4 Sudoeste 8 Oeste 0 -- -- 48
2020-09-12 05:00:00 15.5 0 Calma 5 Sur 0 -- -- 51
2020-09-12 04:00:00 17.2 4 Oeste 16 Noroeste 0 -- -- 45
2020-09-12 03:00:00 16.5 2 Sudoeste 14 Oeste 0 -- -- 48
2020-09-12 02:00:00 17 3 Sur 6 Sur 0 -- -- 46
2020-09-12 01:00:00 18.2 3 Norte 16 Oeste 0 -- -- 43
2020-09-12 00:00:00 18.6 6 Noroeste 15 Oeste 0 -- -- 42
2020-09-11 23:00:00 18.4 0 Calma 11 Noroeste 0 -- -- 40
2020-09-11 22:00:00 18.1 3 Oeste 10 Oeste 0 -- -- 40
2020-09-11 21:00:00 19.2 3 Oeste 15 Oeste 0 -- -- 34
2020-09-11 20:00:00 20.1 7 Noroeste 23 Oeste 0 -- -- 32
2020-09-11 19:00:00 21.3 6 Noroeste 28 Norte 0 -- -- 31
2020-09-11 18:00:00 22.9 7 Norte 26 Norte 0 -- -- 26
2020-09-11 17:00:00 23.5 6 Norte 22 Noroeste 0 -- -- 27
2020-09-11 16:00:00 23.2 8 Noroeste 22 Norte 0 -- -- 26
2020-09-11 15:00:00 24.3 8 Norte 19 Noroeste 0 -- -- 21
2020-09-11 14:00:00 23.9 10 Norte 23 Norte 0 -- -- 18
2020-09-11 13:00:00 23.2 8 Oeste 24 Noroeste 0 -- -- 16
2020-09-11 12:00:00 23.7 8 Este 17 Este 0 -- -- 15
2020-09-11 11:00:00 23.4 6 Norte 19 Norte 0 -- -- 18
2020-09-11 10:00:00 22.6 5 Nordeste 15 Este 0 -- -- 18
2020-09-11 09:00:00 20.5 7 Este 14 Noroeste 0 -- -- 19
2020-09-11 08:00:00 17.4 8 Este 16 Este 0 -- -- 19
2020-09-11 07:00:00 18.8 8 Este 16 Este 0 -- -- 22
2020-09-11 06:00:00 18.8 5 Sudeste 27 Este 0 -- -- 24
2020-09-11 05:00:00 19.4 9 Este 23 Nordeste 0 -- -- 26
2020-09-11 04:00:00 19.2 5 Sudeste 18 Este 0 -- -- 32
2020-09-11 03:00:00 19.5 7 Este 22 Sudeste 0 -- -- 31
2020-09-11 02:00:00 19.4 9 Este 23 Este 0 -- -- 29
2020-09-11 01:00:00 19.6 10 Este 23 Nordeste 0 -- -- 17
2020-09-11 00:00:00 19.2 7 Sudeste 22 Este 0 -- -- 11
2020-09-10 23:00:00 19.9 8 Este 19 Este 0 -- -- 11
2020-09-10 22:00:00 20.1 5 Sur 21 Noroeste 0 -- -- 17
2020-09-10 21:00:00 20.5 4 Sudoeste 22 Oeste 0 -- -- 17
2020-09-10 20:00:00 22.1 5 Sudoeste 18 Este 0 -- -- 18
2020-09-10 19:00:00 23.5 8 Este 21 Este 0 -- -- 18
2020-09-10 18:00:00 23.9 11 Este 28 Este 0 -- -- 20
2020-09-10 17:00:00 24.6 10 Este 25 Este 0 -- -- 20
2020-09-10 16:00:00 26 12 Este 27 Este 0 -- -- 22
2020-09-10 15:00:00 25.9 13 Este 25 Sudeste 0 -- -- 23
2020-09-10 14:00:00 26.2 12 Este 28 Este 0 -- -- 22
2020-09-10 13:00:00 25.6 14 Este 32 Este 0 -- -- 20
2020-09-10 12:00:00 24.8 14 Este 30 Este 0 -- -- 19
2020-09-10 11:00:00 24.3 15 Este 28 Este 0 -- -- 16
2020-09-10 10:00:00 23.4 13 Este 29 Este 0 -- -- 22
2020-09-10 09:00:00 21.7 12 Este 34 Nordeste 0 -- -- 21
2020-09-10 08:00:00 19.5 14 Este 30 Este 0 -- -- 23
2020-09-10 07:00:00 19.3 13 Este 33 Este 0 -- -- 26
2020-09-10 06:00:00 19.6 14 Este 31 Este 0 -- -- 28
2020-09-10 05:00:00 19 11 Este 33 Este 0 -- -- 28
2020-09-10 04:00:00 19.2 14 Este 34 Este 0 -- -- 24
2020-09-10 03:00:00 19.4 17 Este 38 Este 0 -- -- 28
2020-09-10 02:00:00 19.4 16 Este 30 Este 0 -- -- 26
2020-09-10 01:00:00 19.7 17 Este 36 Este 0 -- -- 25
2020-09-10 00:00:00 19.7 15 Este 41 Este 0 -- -- 21
2020-09-09 23:00:00 18.8 15 Sudeste 26 Este 0 -- -- 20
2020-09-09 22:00:00 20.3 15 Este 32 Este 0 -- -- 24
2020-09-09 21:00:00 20.7 15 Este 30 Este 0 -- -- 25
2020-09-09 20:00:00 21.4 14 Este 27 Nordeste 0 -- -- 22
2020-09-09 19:00:00 23.7 13 Este 27 Este 0 -- -- 16
2020-09-09 18:00:00 24.4 14 Este 30 Nordeste 0 -- -- 17
2020-09-09 17:00:00 24.8 15 Este 30 Nordeste 0 -- -- 15
2020-09-09 16:00:00 25.3 16 Este 29 Este 0 -- -- 15
2020-09-09 15:00:00 25.6 15 Este 32 Nordeste 0 -- -- 16
2020-09-09 14:00:00 25.9 13 Este 34 Este 0 -- -- 16
2020-09-09 13:00:00 25.5 14 Este 33 Este 0 -- -- 17
2020-09-09 12:00:00 24.4 19 Este 34 Este 0 -- -- 16
2020-09-09 11:00:00 23.9 18 Este 33 Este 0 -- -- 17
2020-09-09 10:00:00 23.7 15 Este 31 Este 0 -- -- 16
2020-09-09 09:00:00 22.2 17 Este 31 Sudeste 0 -- -- 17
2020-09-09 08:00:00 20.2 16 Este 31 Nordeste 0 -- -- 17
2020-09-09 07:00:00 20.3 15 Este 37 Este 0 -- -- 18
2020-09-09 06:00:00 20.5 18 Este 32 Este 0 -- -- 19
2020-09-09 05:00:00 19.9 18 Este 35 Este 0 -- -- 22
2020-09-09 04:00:00 19.5 18 Este 37 Este 0 -- -- 22
2020-09-09 03:00:00 20.2 20 Este 35 Este 0 -- -- 18
2020-09-09 02:00:00 20.6 16 Este 37 Este 0 -- -- 18
2020-09-09 01:00:00 20.9 20 Este 36 Este 0 -- -- 18
2020-09-09 00:00:00 20.7 18 Este 37 Este 0 -- -- 18
2020-09-08 23:00:00 20.9 17 Este 31 Este 0 -- -- 18
2020-09-08 22:00:00 21.4 17 Este 35 Este 0 -- -- 16
2020-09-08 21:00:00 21.6 17 Este 34 Este 0 -- -- 15
2020-09-08 20:00:00 22.2 13 Este 31 Este 0 -- -- 14
2020-09-08 19:00:00 24.1 15 Este 33 Este 0 -- -- 14
2020-09-08 18:00:00 25.1 15 Este 32 Este 0 -- -- 12
2020-09-08 17:00:00 26.3 16 Este 36 Este 0 -- -- 12
2020-09-08 16:00:00 26.2 18 Este 44 Este 0 -- -- 14
2020-09-08 15:00:00 26.1 18 Este 39 Este 0 -- -- 17
2020-09-08 14:00:00 25.8 23 Este 42 Este 0 -- -- 18
2020-09-08 13:00:00 25.5 22 Este 42 Este 0 -- -- 19
2020-09-08 12:00:00 25.2 19 Este 41 Este 0 -- -- 20
2020-09-08 11:00:00 23.3 19 Este 42 Nordeste 0 -- -- 23
2020-09-08 10:00:00 23.5 21 Este 43 Nordeste 0 -- -- 20
2020-09-08 09:00:00 22.3 20 Este 39 Este 0 -- -- 17
2020-09-08 08:00:00 20.5 20 Este 39 Este 0 -- -- 16
2020-09-08 07:00:00 20.4 19 Este 37 Este 0 -- -- 15
2020-09-08 06:00:00 20.5 17 Este 34 Sudeste 0 -- -- 20
2020-09-08 05:00:00 20.1 17 Este 32 Este 0 -- -- 22
2020-09-08 04:00:00 20.1 18 Este 36 Este 0 -- -- 33
2020-09-08 03:00:00 20 17 Este 35 Sudeste 0 -- -- 30
2020-09-08 02:00:00 20.8 18 Este 33 Sudeste 0 -- -- 27
2020-09-08 01:00:00 20.5 17 Este 31 Este 0 -- -- 30
2020-09-08 00:00:00 20.2 15 Este 30 Este 0 -- -- 33
2020-09-07 23:00:00 20.9 14 Este 29 Este 0 -- -- 28
2020-09-07 22:00:00 21.2 14 Este 28 Este 0 -- -- 27
2020-09-07 21:00:00 21.2 17 Este 28 Este 0 -- -- 28
2020-09-07 20:00:00 21.1 13 Este 22 Este 0 -- -- 33
2020-09-07 19:00:00 23.3 9 Este 19 Este 0 -- -- 37
2020-09-07 18:00:00 23.6 9 Este 17 Este 0 -- -- 38
2020-09-07 17:00:00 24.5 9 Este 24 Nordeste 0 -- -- 39
2020-09-07 16:00:00 26.4 13 Este 24 Este 0 -- -- 35
2020-09-07 15:00:00 26.6 12 Este 29 Este 0 -- -- 37
2020-09-07 14:00:00 25.6 11 Nordeste 23 Este 0 -- -- 38
2020-09-07 13:00:00 27.3 9 Este 21 Sudeste 0 -- -- 34
2020-09-07 12:00:00 26.5 6 Nordeste 15 Este 0 -- -- 33
2020-09-07 11:00:00 24.7 9 Este 17 Este 0 -- -- 37
2020-09-07 10:00:00 24.6 8 Este 15 Este 0 -- -- 38
2020-09-07 09:00:00 20.6 0 Calma 5 Oeste 0 -- -- 48
2020-09-07 08:00:00 18.7 2 Norte 6 Norte 0 -- -- 50
2020-09-07 07:00:00 18 0 Calma 8 Nordeste 0 -- -- 52
2020-09-07 06:00:00 20.2 4 Sur 19 Sudoeste 0 -- -- 47
2020-09-07 05:00:00 19.2 5 Sur 12 Oeste 0 -- -- 45
2020-09-07 04:00:00 19.9 7 Oeste 13 Sudoeste 0 -- -- 37
2020-09-07 03:00:00 20.9 6 Sudeste 14 Sudeste 0 -- -- 37
2020-09-07 02:00:00 20.8 2 Este 8 Sudoeste 0 -- -- 33
2020-09-07 01:00:00 20.3 4 Sudoeste 6 Sudoeste 0 -- -- 34
2020-09-07 00:00:00 21 3 Sudoeste 8 Sudoeste 0 -- -- 32
2020-09-06 23:00:00 20.7 5 Sudoeste 10 Sudoeste 0 -- -- 34
2020-09-06 22:00:00 20.6 5 Sudoeste 8 Sudoeste 0 -- -- 35
2020-09-06 21:00:00 21.3 4 Sudoeste 11 Oeste 0 -- -- 34
2020-09-06 20:00:00 22.2 5 Sudoeste 15 Noroeste 0 -- -- 39
2020-09-06 19:00:00 24.7 8 Oeste 22 Oeste 0 -- -- 40
2020-09-06 18:00:00 25.7 13 Oeste 28 Oeste 0 -- -- 30
2020-09-06 17:00:00 26.6 15 Oeste 29 Sur 0 -- -- 22
2020-09-06 16:00:00 26.5 15 Sudoeste 32 Sudoeste 0 -- -- 26
2020-09-06 15:00:00 26.5 13 Oeste 32 Oeste 0 -- -- 28
2020-09-06 14:00:00 26.7 17 Sudoeste 31 Oeste 0 -- -- 24
2020-09-06 13:00:00 25.9 17 Sudoeste 32 Sudoeste 0 -- -- 24
2020-09-06 12:00:00 25.7 16 Sudoeste 32 Sudoeste 0 -- -- 24
2020-09-06 11:00:00 25 15 Sudoeste 29 Sudoeste 0 -- -- 23
2020-09-06 10:00:00 24.1 13 Sudoeste 27 Oeste 0 -- -- 24
2020-09-06 09:00:00 22.1 15 Sudoeste 31 Sudoeste 0 -- -- 25
2020-09-06 08:00:00 20.4 16 Oeste 29 Sudoeste 0 -- -- 26
2020-09-06 07:00:00 20.2 15 Sudoeste 29 Oeste 0 -- -- 25
2020-09-06 06:00:00 20 14 Sudoeste 29 Sudoeste 0 -- -- 34
2020-09-06 05:00:00 20 13 Sudoeste 30 Sudoeste 0 -- -- 35
2020-09-06 04:00:00 20 13 Sudoeste 32 Sudoeste 0 -- -- 32
2020-09-06 03:00:00 20 13 Sudoeste 29 Oeste 0 -- -- 34
2020-09-06 02:00:00 20.2 13 Sudoeste 30 Sudoeste 0 -- -- 32
2020-09-06 01:00:00 20.1 13 Sudoeste 29 Sudoeste 0 -- -- 34
2020-09-06 00:00:00 20 13 Sudoeste 24 Sudoeste 0 -- -- 37
2020-09-05 23:00:00 19.7 9 Sudoeste 21 Sudoeste 0 -- -- 41
2020-09-05 22:00:00 19.8 8 Sudoeste 19 Sudoeste 0 -- -- 40
2020-09-05 21:00:00 19.9 10 Sudoeste 22 Sudoeste 0 -- -- 40
2020-09-05 20:00:00 21.5 10 Sudoeste 22 Oeste 0 -- -- 37
2020-09-05 19:00:00 24 13 Oeste 24 Oeste 0 -- -- 38
2020-09-05 18:00:00 25 13 Sudoeste 35 Oeste 0 -- -- 32
2020-09-05 17:00:00 26.1 15 Oeste 31 Sudoeste 0 -- -- 33
2020-09-05 16:00:00 26.5 14 Sudoeste 31 Sudoeste 0 -- -- 28
2020-09-05 15:00:00 25.3 17 Oeste 29 Oeste 0 -- -- 38
2020-09-05 14:00:00 27.2 14 Sudoeste 26 Oeste 0 -- -- 33
2020-09-05 13:00:00 26.6 11 Oeste 20 Noroeste 0 -- -- 32
2020-09-05 12:00:00 25.8 9 Oeste 17 Oeste 0 -- -- 32
2020-09-05 11:00:00 24.8 9 Oeste 14 Noroeste 0 -- -- 33
2020-09-05 10:00:00 24.6 8 Oeste 14 Sudoeste 0 -- -- 33
2020-09-05 09:00:00 22.8 4 Sudoeste 8 Sur 0 -- -- 36
2020-09-05 08:00:00 18.6 3 Este 5 Sudeste 0 -- -- 45
2020-09-05 07:00:00 18.4 2 Sur 7 Sudoeste 0 -- -- 48
2020-09-05 06:00:00 19.2 0 Calma 7 Nordeste 0 -- -- 44
2020-09-05 05:00:00 21.1 4 Nordeste 15 Oeste 0 -- -- 39
2020-09-05 04:00:00 20.9 4 Norte 15 Norte 0 -- -- 41
2020-09-05 03:00:00 19.6 3 Norte 8 Noroeste 0 -- -- 43
2020-09-05 02:00:00 20.3 4 Oeste 13 Sudoeste 0 -- -- 40
2020-09-05 01:00:00 20.2 3 Nordeste 10 Norte 0 -- -- 38
2020-09-05 00:00:00 20.2 4 Noroeste 14 Norte 0 -- -- 33
2020-09-04 23:00:00 19.2 3 Sudeste 8 Este 0 -- -- 31
2020-09-04 22:00:00 20.3 3 Nordeste 9 Noroeste 0 -- -- 24
2020-09-04 21:00:00 20.8 5 Oeste 18 Noroeste 0 -- -- 22
2020-09-04 20:00:00 22.9 8 Noroeste 28 Oeste 0 -- -- 20
2020-09-04 19:00:00 25.4 12 Noroeste 35 Oeste 0 -- -- 20
2020-09-04 18:00:00 26.5 15 Oeste 45 Oeste 0 -- -- 20
2020-09-04 17:00:00 26.6 21 Oeste 42 Oeste 0 -- -- 20
2020-09-04 16:00:00 26 23 Oeste 43 Oeste 0 -- -- 16
2020-09-04 15:00:00 26 21 Oeste 33 Oeste 0 -- -- 17
2020-09-04 14:00:00 26.3 16 Oeste 33 Oeste 0 -- -- 17
2020-09-04 13:00:00 25.6 13 Oeste 22 Oeste 0 -- -- 17
2020-09-04 12:00:00 25 12 Oeste 21 Oeste 0 -- -- 17
2020-09-04 11:00:00 23.1 14 Oeste 25 Oeste 0 -- -- 18
2020-09-04 10:00:00 22.8 10 Oeste 23 Oeste 0 -- -- 18
2020-09-04 09:00:00 20.6 5 Oeste 16 Oeste 0 -- -- 22
2020-09-04 08:00:00 17.2 2 Sur 13 Sudoeste 0 -- -- 25
2020-09-04 07:00:00 17.2 6 Oeste 20 Oeste 0 -- -- 25
2020-09-04 06:00:00 17.1 3 Oeste 12 Oeste 0 -- -- 24
2020-09-04 05:00:00 16.7 3 Sur 8 Oeste 0 -- -- 22
2020-09-04 04:00:00 18.3 3 Norte 10 Norte 0 -- -- 23
2020-09-04 03:00:00 17.5 4 Norte 10 Norte 0 -- -- 22
2020-09-04 02:00:00 17.8 4 Norte 10 Norte 0 -- -- 22
2020-09-04 01:00:00 18.8 3 Norte 11 Noroeste 0 -- -- 22
2020-09-04 00:00:00 18.3 2 Nordeste 6 Noroeste 0 -- -- 22
2020-09-03 23:00:00 17.8 3 Norte 9 Norte 0 -- -- 23
2020-09-03 22:00:00 18.6 3 Este 9 Noroeste 0 -- -- 22
2020-09-03 21:00:00 19.2 3 Norte 13 Oeste 0 -- -- 28
2020-09-03 20:00:00 22.9 5 Oeste 18 Oeste 0 -- -- 34
2020-09-03 19:00:00 24.8 11 Oeste 19 Oeste 0 -- -- 32
2020-09-03 18:00:00 25.1 11 Oeste 22 Oeste 0 -- -- 31
2020-09-03 17:00:00 25.2 13 Oeste 28 Oeste 0 -- -- 32
2020-09-03 16:00:00 26.1 17 Oeste 32 Oeste 0 -- -- 25
2020-09-03 15:00:00 26.6 15 Oeste 28 Oeste 0 -- -- 19
2020-09-03 14:00:00 26.4 18 Oeste 27 Oeste 0 -- -- 17
2020-09-03 13:00:00 25.5 14 Oeste 22 Oeste 0 -- -- 17
2020-09-03 12:00:00 25.9 7 Noroeste 16 Oeste 0 -- -- 15
2020-09-03 11:00:00 25.5 6 Oeste 11 Oeste 0 -- -- 14
2020-09-03 10:00:00 24.5 6 Oeste 12 Oeste 0 -- -- 13
2020-09-03 09:00:00 21.6 2 Sudoeste 7 Oeste 0 -- -- 13
2020-09-03 08:00:00 18 0 Calma 6 Sudeste 0 -- -- 18
2020-09-03 07:00:00 17.6 3 Sudeste 5 Sudeste 0 -- -- 17
2020-09-03 06:00:00 17.1 3 Sudeste 7 Sudoeste 0 -- -- 17
2020-09-03 05:00:00 17.5 4 Sur 11 Sudoeste 0 -- -- 17
2020-09-03 04:00:00 17.2 4 Sudoeste 8 Sudoeste 0 -- -- 18
2020-09-03 03:00:00 17 2 Sudeste 4 Norte 0 -- -- 16
2020-09-03 02:00:00 16.6 0 Calma 5 Nordeste 0 -- -- 11
2020-09-03 01:00:00 17.7 4 Nordeste 7 Nordeste 0 -- -- 11
2020-09-03 00:00:00 18.5 3 Nordeste 8 Norte 0 -- -- 20
2020-09-02 23:00:00 17.7 3 Norte 10 Nordeste 0 -- -- 24
2020-09-02 22:00:00 18.5 3 Nordeste 12 Nordeste 0 -- -- 21
2020-09-02 21:00:00 19.2 5 Nordeste 9 Nordeste 0 -- -- 22
2020-09-02 20:00:00 24 3 Noroeste 12 Oeste 0 -- -- 34
2020-09-02 19:00:00 24.3 9 Oeste 18 Oeste 0 -- -- 32
2020-09-02 18:00:00 25.4 11 Oeste 24 Oeste 0 -- -- 20
2020-09-02 17:00:00 24.7 15 Oeste 28 Oeste 0 -- -- 29
2020-09-02 16:00:00 25.7 17 Oeste 28 Oeste 0 -- -- 18
2020-09-02 15:00:00 26.1 18 Oeste 29 Oeste 0 -- -- 15
2020-09-02 14:00:00 26 15 Oeste 28 Oeste 0 -- -- 17
2020-09-02 13:00:00 25.2 15 Oeste 25 Oeste 0 -- -- 14
2020-09-02 12:00:00 25.9 13 Oeste 23 Oeste 0 -- -- 11
2020-09-02 11:00:00 24.7 12 Oeste 19 Oeste 0 -- -- 18
2020-09-02 10:00:00 23.7 12 Oeste 18 Oeste 0 -- -- 20
2020-09-02 09:00:00 21.8 7 Sudoeste 14 Oeste 0 -- -- 21
2020-09-02 08:00:00 17.7 6 Sudoeste 9 Sudoeste 0 -- -- 24
2020-09-02 07:00:00 18.1 7 Sudoeste 11 Sur 0 -- -- 29
2020-09-02 06:00:00 18 6 Sudoeste 12 Sudoeste 0 -- -- 31
2020-09-02 05:00:00 17.4 6 Sur 12 Sur 0 -- -- 30
2020-09-02 04:00:00 18.2 6 Sur 14 Sudoeste 0 -- -- 24
2020-09-02 03:00:00 18.5 6 Sudoeste 15 Sudoeste 0 -- -- 13
2020-09-02 02:00:00 18.3 7 Sudoeste 13 Sur 0 -- -- 12
2020-09-02 01:00:00 16.5 3 Sur 7 Sur 0 -- -- 14
2020-09-02 00:00:00 17.1 4 Sur 6 Sur 0 -- -- 13
2020-09-01 23:00:00 16.7 0 Calma 6 Sudoeste 0 -- -- 14
2020-09-01 22:00:00 17.3 3 Oeste 11 Sudoeste 0 -- -- 12
2020-09-01 21:00:00 18.6 4 Sudoeste 16 Oeste 0 -- -- 6
2020-09-01 20:00:00 21.4 8 Oeste 18 Oeste 0 -- -- 24
2020-09-01 19:00:00 21.8 13 Oeste 22 Oeste 0 -- -- 31
2020-09-01 18:00:00 21.6 14 Oeste 21 Oeste 0 -- -- 45
2020-09-01 17:00:00 22.7 14 Oeste 27 Oeste 0 -- -- 51
2020-09-01 16:00:00 24.2 14 Oeste 28 Sudoeste 0 -- -- 44
2020-09-01 15:00:00 24.3 14 Oeste 33 Oeste 0 -- -- 37
2020-09-01 14:00:00 24.7 11 Oeste 24 Sudeste 0 -- -- 25
2020-09-01 13:00:00 24.4 11 Oeste 22 Oeste 0 -- -- 30
2020-09-01 12:00:00 24.5 10 Oeste 18 Oeste 0 -- -- 19
2020-09-01 11:00:00 24.3 12 Sudoeste 23 Sudoeste 0 -- -- 14
2020-09-01 10:00:00 23.7 10 Sur 17 Sur 0 -- -- 12
2020-09-01 09:00:00 20.7 7 Sudeste 12 Sudeste 0 -- -- 15
2020-09-01 08:00:00 16.2 4 Este 9 Sudeste 0 -- -- 17
2020-09-01 07:00:00 17 6 Sudeste 14 Este 0 -- -- 11
2020-09-01 06:00:00 15.3 2 Nordeste 15 Sudeste 0 -- -- 21
2020-09-01 05:00:00 17.7 11 Sudeste 15 Sudeste 0 -- -- 15
2020-09-01 04:00:00 18.3 10 Este 16 Sudeste 0 -- -- 17
2020-09-01 03:00:00 18.3 8 Este 21 Nordeste 0 -- -- 10
2020-09-01 02:00:00 18.9 11 Este 19 Este 0 -- -- 9
2020-09-01 01:00:00 16.3 7 Este 13 Este 0 -- -- 12
2020-09-01 00:00:00 14.9 5 Este 12 Este 0 -- -- 23
2020-08-31 23:00:00 15.1 5 Este 12 Nordeste 0 -- -- 24
2020-08-31 22:00:00 16 5 Norte 12 Norte 0 -- -- 27
2020-08-31 21:00:00 14.5 2 Norte 9 Nordeste 0 -- -- 37
2020-08-31 20:00:00 18.3 5 Nordeste 14 Nordeste 0 -- -- 38
2020-08-31 19:00:00 19.1 6 Noroeste 15 Oeste 0 -- -- 49
2020-08-31 18:00:00 19.8 9 Oeste 17 Oeste 0 -- -- 51
2020-08-31 17:00:00 21.2 8 Noroeste 18 Noroeste 0 -- -- 29
2020-08-31 16:00:00 20.2 9 Nordeste 22 Noroeste 0 -- -- 31
2020-08-31 15:00:00 19.1 10 Este 22 Este 0 -- -- 32
2020-08-31 14:00:00 18.5 10 Este 18 Nordeste 0 -- -- 47
2020-08-31 13:00:00 18.4 9 Este 20 Este 0 -- -- 52
2020-08-31 12:00:00 17 12 Este 24 Este 0 -- -- 51
2020-08-31 11:00:00 15.1 14 Este 26 Este 0 -- -- 63
2020-08-31 10:00:00 13.3 15 Este 26 Este 0 -- -- 58
2020-08-31 09:00:00 11.7 14 Este 28 Este 0 -- -- 45
2020-08-31 08:00:00 9.1 13 Este 24 Este 0 -- -- 51
2020-08-31 07:00:00 8.8 16 Este 24 Este 0 -- -- 49
2020-08-31 06:00:00 9 15 Este 27 Sudeste 0 -- -- 51
2020-08-31 05:00:00 9.5 15 Este 26 Este 0 -- -- 46
2020-08-31 04:00:00 9.6 15 Este 33 Nordeste 0 -- -- 46
2020-08-31 03:00:00 9.6 19 Este 31 Este 0 -- -- 52
2020-08-31 02:00:00 9.5 21 Este 32 Nordeste 0 -- -- 57
2020-08-31 01:00:00 8.6 16 Este 30 Este 0 -- -- 72
2020-08-31 00:00:00 9.4 17 Este 27 Este 0 -- -- 60
2020-08-30 23:00:00 7.9 15 Este 25 Este 0 -- -- 94
2020-08-30 22:00:00 8.7 15 Este 25 Este 0 -- -- 60
2020-08-30 21:00:00 7.7 14 Este 23 Este 0 -- -- 92
2020-08-30 20:00:00 9.2 12 Este 29 Este 0 -- -- 96
2020-08-30 19:00:00 9.9 15 Este 30 Este 0 -- -- 99
2020-08-30 18:00:00 10.4 13 Este 24 Este 0 -- -- 97
2020-08-30 17:00:00 10.5 13 Este 31 Nordeste 0 -- -- 98
2020-08-30 16:00:00 10.2 18 Este 39 Este 0 -- -- 99
2020-08-30 15:00:00 10.1 16 Este 34 Este 0 -- -- 100
2020-08-30 14:00:00 10.1 15 Este 35 Este 0 -- -- 100
2020-08-30 13:00:00 9.2 18 Este 35 Este 0 -- -- 100
2020-08-30 12:00:00 9.7 13 Este 32 Este 0.8 -- -- 100
2020-08-30 11:00:00 10.2 13 Este 37 Este 0 -- -- 100
2020-08-30 10:00:00 8.8 21 Este 38 Este 0.2 -- -- 100
2020-08-30 09:00:00 7.8 15 Este 31 Este 0 -- -- 100
2020-08-30 08:00:00 8.5 10 Este 25 Sudeste 0.6 -- -- 100
2020-08-30 07:00:00 9.3 10 Sudeste 33 Este 0.4 -- -- 100
2020-08-30 06:00:00 8.4 13 Este 36 Este 0.6 -- -- 100
2020-08-30 05:00:00 10.2 9 Sur 33 Sudeste 1.2 -- -- 100
2020-08-30 04:00:00 8.7 19 Este 42 Este 0 -- -- 100
2020-08-30 03:00:00 9 19 Este 39 Este 0.2 -- -- 99
2020-08-30 02:00:00 9 24 Este 41 Este 0.2 -- -- 99
2020-08-30 01:00:00 9.6 19 Este 39 Este 0.2 -- -- 99
2020-08-30 00:00:00 9.7 17 Este 39 Este 0.4 -- -- 99
2020-08-29 23:00:00 10.5 17 Este 40 Nordeste 0.2 -- -- 99
2020-08-29 22:00:00 10.3 18 Este 38 Nordeste 0.2 -- -- 98
2020-08-29 21:00:00 9 12 Este 31 Este 0 -- -- 89
2020-08-29 20:00:00 10.5 17 Este 39 Este 0 -- -- 97
2020-08-29 19:00:00 12.2 13 Este 42 Este 0 -- -- 97
2020-08-29 18:00:00 12.5 19 Este 39 Este 0 -- -- 94
2020-08-29 17:00:00 13.8 22 Este 43 Este 0 -- -- 82
2020-08-29 16:00:00 14.9 19 Este 39 Este 0 -- -- 79
2020-08-29 15:00:00 15.6 17 Este 39 Este 0 -- -- 72
2020-08-29 14:00:00 16.1 17 Este 33 Este 0 -- -- 70
2020-08-29 13:00:00 17.6 14 Este 33 Este 0 -- -- 47
2020-08-29 12:00:00 17.5 11 Nordeste 34 Este 0 -- -- 43
2020-08-29 11:00:00 19.2 9 Este 31 Nordeste 0 -- -- 28
2020-08-29 10:00:00 19.1 8 Nordeste 28 Nordeste 0 -- -- 23
2020-08-29 09:00:00 17.3 9 Este 24 Este 0 -- -- 23
2020-08-29 08:00:00 15.6 5 Este 17 Este 0 -- -- 27
2020-08-29 07:00:00 16.1 5 Este 23 Este 0 -- -- 21
2020-08-29 06:00:00 16.2 9 Nordeste 25 Norte 0 -- -- 20
2020-08-29 05:00:00 16.9 9 Este 24 Nordeste 0 -- -- 19
2020-08-29 04:00:00 17.2 15 Este 31 Sudeste 0 -- -- 18
2020-08-29 03:00:00 17.6 11 Este 22 Este 0 -- -- 17
2020-08-29 02:00:00 18.9 11 Este 21 Este 0 -- -- 14
2020-08-29 01:00:00 20.1 8 Este 20 Este 0 -- -- 12
2020-08-29 00:00:00 19.7 8 Sudeste 24 Este 0 -- -- 13
2020-08-28 23:00:00 20 11 Sudeste 21 Este 0 -- -- 13
2020-08-28 22:00:00 20.2 11 Este 23 Este 0 -- -- 14
2020-08-28 21:00:00 21 11 Este 21 Este 0 -- -- 13
2020-08-28 20:00:00 22.8 9 Este 21 Este 0 -- -- 11
2020-08-28 19:00:00 24.9 11 Este 27 Este 0 -- -- 10
2020-08-28 18:00:00 26.8 10 Este 22 Nordeste 0 -- -- 14
2020-08-28 17:00:00 28.3 9 Este 24 Nordeste 0 -- -- 12
2020-08-28 16:00:00 28.1 12 Este 28 Este 0 -- -- 13
2020-08-28 15:00:00 27.8 13 Este 31 Este 0 -- -- 15
2020-08-28 14:00:00 28.2 10 Este 32 Este 0 -- -- 16
2020-08-28 13:00:00 26.9 12 Este 33 Este 0 -- -- 17
2020-08-28 12:00:00 26.4 19 Este 33 Sudeste 0 -- -- 19
2020-08-28 11:00:00 25.9 14 Este 32 Nordeste 0 -- -- 21
2020-08-28 10:00:00 24.9 19 Este 38 Este 0 -- -- 21
2020-08-28 09:00:00 23.1 19 Este 41 Este 0 -- -- 23
2020-08-28 08:00:00 22.5 20 Este 45 Este 0 -- -- 24
2020-08-28 07:00:00 21.2 17 Este 36 Este 0 -- -- 26
2020-08-28 06:00:00 21.3 19 Este 39 Este 0 -- -- 25
2020-08-28 05:00:00 22.7 17 Sudeste 39 Este 0 -- -- 22
2020-08-28 04:00:00 23.1 16 Este 35 Este 0 -- -- 21
2020-08-28 03:00:00 23.7 18 Este 40 Este 0 -- -- 21
2020-08-28 02:00:00 23.6 20 Este 36 Este 0 -- -- 21
2020-08-28 01:00:00 22.9 17 Este 32 Este 0 -- -- 24
2020-08-28 00:00:00 24.1 19 Este 32 Este 0 -- -- 22